• Join FlightAware (Why Join?)
  • Login
  • US Flag 
09:47PM EST


 

Airport Tracker/Info


-or-


 

Live Flight TrackerFlight Track Log ✈ AAL1796 ✈ 21-Apr-2013 ✈ KDFW - KMCI

Flight Track Log - Related Links

Times and Time Zones

All times are in EDT time to prevent confusion due to time zone crossing. See the AAL1796 flight status page for this flight to view local times or setup timezone preferences in your user account.

Time Position Orientation Groundspeed Altitude Reporting Facility
EDT Latitude Longitude Course Direction KTS MPH feet Rate Location/Type
06:33PM 32.8500 -97.0500 331° Northwest 186 214 2,800  Level Dallas / Fort Worth TRACON
06:34PM 32.7833 -97.0833 203° Southwest 249 287 5,400 2,940 Climbing Dallas / Fort Worth TRACON
06:35PM 32.8422 -96.8016 10° North  Level FlightAware Approximate
06:35PM 32.7667 -97.1500 253° West 272 313 8,700  Level Dallas / Fort Worth TRACON
06:36PM 32.9577 -96.8000 North  Level FlightAware Approximate
06:36PM 32.7833 -97.2500 281° West 277 319 10,000  Level Dallas / Fort Worth TRACON
06:37PM 33.0638 -96.8483 333° Northwest  Level FlightAware Approximate
06:37PM 32.8458 -97.2700 345° North 286 329 11,900  Level Fort Worth Center
06:38PM 33.1648 -96.9154 331° Northwest  Level FlightAware Approximate
06:38PM 32.9356 -97.2722 359° North 309 356 14,100  Level Fort Worth Center
06:39PM 33.0336 -97.2572 North 339 390 17,000 2,460 Climbing Fort Worth Center
06:40PM 33.1297 -97.2250 16° North 350 403 19,100 2,160 Climbing Fort Worth Center
06:41PM 33.2278 -97.1850 19° North 367 422 21,400 1,980 Climbing Fort Worth Center
06:42PM 33.3217 -97.1450 20° North 386 444 23,100 1,320 Climbing Fort Worth Center
06:43PM 33.4300 -97.0947 21° North 400 460 24,100 1,200 Climbing Fort Worth Center
06:44PM 33.5425 -97.0422 21° North 422 486 25,600 1,800 Climbing Fort Worth Center
06:45PM 33.6550 -96.9917 21° North 430 495 27,800 1,800 Climbing Fort Worth Center
06:46PM 33.7697 -96.9411 20° North 430 495 29,200 1,440 Climbing Fort Worth Center
06:47PM 33.8925 -96.8806 22° Northeast 430 495 30,700 1,260 Climbing Fort Worth Center
06:48PM 34.0031 -96.8297 21° North 430 495 31,800 1,140 Climbing Fort Worth Center
06:49PM 34.1008 -96.7864 20° North 422 486 33,000 600 Climbing Fort Worth Center
06:50PM 34.2175 -96.7303 22° Northeast 417 480 33,000  Level Fort Worth Center
06:51PM 34.3319 -96.6767 21° North 428 493 33,000  Level Fort Worth Center
06:52PM 34.4464 -96.6253 20° North 433 498 33,000  Level Fort Worth Center
06:53PM 34.5628 -96.5689 22° Northeast 438 504 33,000  Level Fort Worth Center
06:54PM 34.6792 -96.5144 21° North 438 504 33,000  Level Fort Worth Center
06:55PM 34.7936 -96.4603 21° North 444 511 33,000  Level Fort Worth Center
06:56PM 34.9119 -96.4058 21° North 444 511 33,000  Level Fort Worth Center
06:57PM 35.0264 -96.3539 20° North 444 511 33,000  Level Fort Worth Center
06:58PM 35.1431 -96.3244 12° North 439 505 33,000  Level Fort Worth Center
06:59PM 35.2594 -96.2922 13° North 433 498 33,000  Level Fort Worth Center
07:01PM 35.5367 -96.2117 13° North 432 497 33,000  Level Kansas City Center
07:02PM 35.6542 -96.1792 13° North 433 498 33,000  Level Kansas City Center
07:03PM 35.7703 -96.1453 13° North 432 497 33,000  Level Kansas City Center
07:04PM 35.8858 -96.1114 13° North 432 497 33,000  Level Kansas City Center
07:05PM 36.0269 -96.0725 13° North 431 496 33,000  Level Kansas City Center
07:06PM 36.1456 -96.0372 14° North 433 498 33,000  Level Kansas City Center
07:07PM 36.2639 -96.0008 14° North 434 499 33,000  Level Kansas City Center
07:08PM 36.3817 -95.9672 13° North 431 496 33,000  Level Kansas City Center
07:09PM 36.4981 -95.9317 14° North 427 491 33,000  Level Kansas City Center
07:10PM 36.6158 -95.8975 13° North 429 494 33,000  Level Kansas City Center
07:12PM 36.7328 -95.8628 13° North 429 494 33,000  Level Kansas City Center
07:13PM 36.8503 -95.8281 13° North 430 495 33,000  Level Kansas City Center
07:14PM 36.9894 -95.7867 13° North 426 490 33,000  Level Kansas City Center
07:15PM 37.1072 -95.7511 14° North 429 494 33,000  Level Kansas City Center
07:16PM 37.2242 -95.7167 13° North 431 496 33,000  Level Kansas City Center
07:17PM 37.3428 -95.6794 14° North 434 499 33,000  Level Kansas City Center
07:18PM 37.4611 -95.6431 14° North 436 502 33,000 -420 Level Kansas City Center
07:19PM 37.5778 -95.6072 14° North 432 497 32,200 -900 Descending Kansas City Center
07:20PM 37.6944 -95.5800 10° North 426 490 31,200 -1,200 Descending Kansas City Center
07:21PM 37.8325 -95.5661 North 416 479 29,800 -1,500 Descending Kansas City Center
07:22PM 37.9425 -95.5497 North 421 484 28,200 -1,680 Descending Kansas City Center
07:23PM 38.0758 -95.5303 North 428 493 26,400 -1,560 Descending Kansas City Center
07:24PM 38.1875 -95.5136 North 422 486 25,000 -1,260 Descending Kansas City Center
07:25PM 38.2981 -95.4981 North 418 481 23,900 -1,080 Descending Kansas City Center
07:26PM 38.4250 -95.4786 North 411 473 22,800 -1,020 Descending Kansas City Center
07:27PM 38.5336 -95.4617 North 410 472 21,800 -960 Descending Kansas City Center
07:28PM 38.6592 -95.4408 North 405 466 20,900 -1,140 Descending Kansas City Center
07:29PM 38.7647 -95.4267 North 400 460 19,500 -1,560 Descending Kansas City Center
07:30PM 38.8625 -95.3383 35° Northeast 399 459 17,700 -1,980 Descending Kansas City Center
07:31PM 38.9336 -95.2400 47° Northeast 396 456 15,500 -2,340 Descending Kansas City Center
07:32PM 39.0122 -95.1289 48° Northeast 379 436 12,900 -1,740 Descending Kansas City Center
07:33PM 39.0756 -95.0386 48° Northeast 355 409 12,000 -420 Descending Kansas City Center
07:34PM 39.1389 -94.9464 48° Northeast 311 358 12,100 -360 Climbing Kansas City Center
07:35PM 39.1964 -94.8681 47° Northeast 315 362 11,300 -1,500 Descending Kansas City Center
07:36PM 39.2889 -94.8433 12° North 303 349 9,000 -2,100 Descending Kansas City Center
07:37PM 39.3642 -94.8172 15° North 293 337 7,100 -1,920 Descending Kansas City Center